createdAt,value
2023-05-10T00:01:42.976Z,2.80
2023-05-10T00:11:42.861Z,3.50
2023-05-10T00:21:42.919Z,3.50
2023-05-10T00:31:42.762Z,3.90
2023-05-10T00:41:42.961Z,3.50
2023-05-10T00:51:42.922Z,4.00
2023-05-10T01:01:42.840Z,4.00
2023-05-10T01:11:42.801Z,3.90
2023-05-10T01:21:42.993Z,3.60
2023-05-10T01:31:42.829Z,4.10
2023-05-10T01:41:42.814Z,4.10
2023-05-10T01:51:42.813Z,4.10
2023-05-10T02:01:42.880Z,4.10
2023-05-10T02:11:42.838Z,4.30
2023-05-10T02:21:43.013Z,4.20
2023-05-10T02:31:42.858Z,5.40
2023-05-10T02:41:42.865Z,4.80
2023-05-10T02:51:43.061Z,5.20
2023-05-10T03:01:43.272Z,5.40
2023-05-10T03:11:42.894Z,8.00
2023-05-10T03:21:42.908Z,6.70
2023-05-10T03:31:42.923Z,6.10
2023-05-10T03:41:42.946Z,5.90
2023-05-10T03:51:42.820Z,7.40
2023-05-10T04:01:42.951Z,7.90
2023-05-10T04:11:42.768Z,8.80
2023-05-10T04:21:42.696Z,9.50
2023-05-10T04:31:42.702Z,9.30
2023-05-10T04:41:42.754Z,7.80
2023-05-10T04:51:42.767Z,8.20
2023-05-10T05:01:43.012Z,8.70
2023-05-10T05:11:42.926Z,8.40
2023-05-10T05:21:43.119Z,9.40
2023-05-10T05:31:42.994Z,8.10
2023-05-10T05:41:43.192Z,11.30
2023-05-10T05:51:43.220Z,13.10
2023-05-10T06:01:43.100Z,12.70
2023-05-10T06:11:43.327Z,13.10
2023-05-10T06:21:43.112Z,11.90
2023-05-10T06:31:43.162Z,12.10
2023-05-10T06:41:43.134Z,12.40
2023-05-10T06:51:42.958Z,11.90
2023-05-10T07:01:43.184Z,11.50
2023-05-10T07:11:42.798Z,11.50
2023-05-10T07:21:42.785Z,12.10
2023-05-10T07:31:42.899Z,10.40
2023-05-10T07:41:42.765Z,9.20
2023-05-10T07:51:42.552Z,9.30
2023-05-10T08:01:42.525Z,9.60
2023-05-10T08:11:42.484Z,9.70
2023-05-10T08:21:44.499Z,8.60
2023-05-10T08:31:42.699Z,10.40
2023-05-10T08:41:42.488Z,9.70
2023-05-10T08:51:43.877Z,10.50
2023-05-10T09:01:42.638Z,11.00
2023-05-10T09:11:42.719Z,10.00
2023-05-10T09:21:42.760Z,10.00
2023-05-10T09:31:43.171Z,10.30
2023-05-10T09:41:45.039Z,9.90
2023-05-10T09:51:43.403Z,9.70
2023-05-10T10:01:43.180Z,8.60
2023-05-10T10:11:43.553Z,9.10
2023-05-10T10:21:43.276Z,9.80
2023-05-10T10:31:43.421Z,12.50
2023-05-10T10:41:43.577Z,13.30
2023-05-10T10:51:43.705Z,12.10
2023-05-10T11:01:43.478Z,12.70
2023-05-10T11:11:43.779Z,11.70
2023-05-10T11:21:43.900Z,12.70
2023-05-10T11:31:44.135Z,12.90
2023-05-10T11:41:43.794Z,11.00
2023-05-10T11:51:43.823Z,12.10
2023-05-10T12:01:43.779Z,11.20
2023-05-10T12:11:47.432Z,11.40
2023-05-10T12:21:43.952Z,10.70
2023-05-10T12:31:44.076Z,11.00
2023-05-10T12:41:44.178Z,10.70
2023-05-10T12:51:49.269Z,11.00
2023-05-10T13:01:49.258Z,9.90
2023-05-10T13:11:48.521Z,10.80
2023-05-10T13:21:48.563Z,10.70
2023-05-10T13:31:48.056Z,10.90
2023-05-10T13:41:47.417Z,12.00
2023-05-10T13:51:47.367Z,11.10
2023-05-10T14:01:46.656Z,10.40
2023-05-10T14:11:46.304Z,10.10
2023-05-10T14:21:46.134Z,15.60
2023-05-10T14:31:51.313Z,10.00
2023-05-10T14:41:50.708Z,9.60
2023-05-10T14:51:50.652Z,10.50
2023-05-10T15:01:49.987Z,9.20
2023-05-10T15:11:49.580Z,8.90
2023-05-10T15:21:49.333Z,8.90
2023-05-10T15:31:49.043Z,8.10
2023-05-10T15:41:48.681Z,7.20
2023-05-10T15:51:54.155Z,8.50
2023-05-10T16:01:53.478Z,8.40
2023-05-10T16:11:53.124Z,8.60
2023-05-10T16:21:52.752Z,8.70
2023-05-10T16:31:52.497Z,8.20
2023-05-10T16:41:51.945Z,7.50
2023-05-10T16:51:52.103Z,8.00
2023-05-10T17:02:01.855Z,5.90
2023-05-10T17:11:56.720Z,6.70
2023-05-10T17:21:56.619Z,5.70
2023-05-10T17:31:55.963Z,5.90
2023-05-10T17:41:55.588Z,6.10
2023-05-10T17:51:55.212Z,6.00
2023-05-10T18:01:54.833Z,5.60
2023-05-10T18:12:00.999Z,5.20
2023-05-10T18:21:59.725Z,6.00
2023-05-10T18:31:59.220Z,5.70
2023-05-10T18:41:58.836Z,5.60
2023-05-10T18:51:58.463Z,5.50
2023-05-10T19:01:58.085Z,6.10
2023-05-10T19:11:57.726Z,6.80
2023-05-10T19:21:57.335Z,6.20
2023-05-10T19:31:57.146Z,8.20
2023-05-10T19:42:02.148Z,6.00
2023-05-10T19:52:01.928Z,6.40
2023-05-10T20:02:03.186Z,6.20
2023-05-10T20:12:01.024Z,6.50
2023-05-10T20:22:00.636Z,6.40
2023-05-10T20:32:00.417Z,5.90
2023-05-10T20:41:59.860Z,6.90
2023-05-10T20:51:59.515Z,6.30
2023-05-10T21:01:59.177Z,6.40
2023-05-10T21:11:58.742Z,6.60
2023-05-10T21:21:58.620Z,6.30
2023-05-10T21:32:03.772Z,5.80
2023-05-10T21:42:03.477Z,6.30
2023-05-10T21:52:03.164Z,6.60
2023-05-10T22:02:02.823Z,6.40
2023-05-10T22:12:02.402Z,6.20
2023-05-10T22:22:02.012Z,6.60
2023-05-10T22:32:01.839Z,7.80
2023-05-10T22:42:01.184Z,8.70
2023-05-10T22:52:00.937Z,8.50
2023-05-10T23:02:00.355Z,8.40
2023-05-10T23:12:00.174Z,8.00
2023-05-10T23:21:59.759Z,8.60
2023-05-10T23:31:59.681Z,8.10
2023-05-10T23:41:59.473Z,8.30
2023-05-10T23:51:59.551Z,8.80
